sensor_id;sensor_type;location;lat;lon;timestamp;pressure;altitude;pressure_sealevel;temperature;humidity
47761;BME280;33524;55.434;38.520;2023-05-12T00:02:22;100860.03;;;5.88;67.56
47761;BME280;33524;55.434;38.520;2023-05-12T00:04:52;100863.41;;;5.71;69.29
47761;BME280;33524;55.434;38.520;2023-05-12T00:07:20;100869.44;;;5.53;74.27
47761;BME280;33524;55.434;38.520;2023-05-12T00:09:48;100869.31;;;5.35;75.84
47761;BME280;33524;55.434;38.520;2023-05-12T00:12:16;100859.69;;;5.17;77.14
47761;BME280;33524;55.434;38.520;2023-05-12T00:14:44;100867.91;;;5.08;78.82
47761;BME280;33524;55.434;38.520;2023-05-12T00:17:12;100867.81;;;4.89;79.49
47761;BME280;33524;55.434;38.520;2023-05-12T00:19:40;100867.28;;;5.23;73.45
47761;BME280;33524;55.434;38.520;2023-05-12T00:22:10;100863.66;;;5.85;67.51
47761;BME280;33524;55.434;38.520;2023-05-12T00:24:38;100855.81;;;6.23;63.61
47761;BME280;33524;55.434;38.520;2023-05-12T00:27:07;100862.19;;;5.99;66.17
47761;BME280;33524;55.434;38.520;2023-05-12T00:29:35;100864.69;;;5.62;69.63
47761;BME280;33524;55.434;38.520;2023-05-12T00:32:03;100856.56;;;6.08;65.19
47761;BME280;33524;55.434;38.520;2023-05-12T00:34:32;100862.44;;;5.93;65.87
47761;BME280;33524;55.434;38.520;2023-05-12T00:37:00;100873.12;;;5.28;75.39
47761;BME280;33524;55.434;38.520;2023-05-12T00:39:28;100861.25;;;5.00;78.45
47761;BME280;33524;55.434;38.520;2023-05-12T00:41:58;100873.28;;;4.82;82.90
47761;BME280;33524;55.434;38.520;2023-05-12T00:44:26;100878.56;;;4.81;85.64
47761;BME280;33524;55.434;38.520;2023-05-12T00:46:54;100869.09;;;4.78;86.17
47761;BME280;33524;55.434;38.520;2023-05-12T00:49:24;100873.47;;;4.78;87.11
47761;BME280;33524;55.434;38.520;2023-05-12T00:51:53;100854.69;;;4.70;88.75
47761;BME280;33524;55.434;38.520;2023-05-12T00:54:23;100875.34;;;4.74;89.73
47761;BME280;33524;55.434;38.520;2023-05-12T00:56:51;100866.56;;;4.77;90.11
47761;BME280;33524;55.434;38.520;2023-05-12T00:59:20;100876.94;;;4.78;89.50
47761;BME280;33524;55.434;38.520;2023-05-12T01:01:49;100875.31;;;4.76;90.35
47761;BME280;33524;55.434;38.520;2023-05-12T01:04:17;100867.59;;;4.73;91.10
47761;BME280;33524;55.434;38.520;2023-05-12T01:06:55;100869.31;;;4.74;89.02
47761;BME280;33524;55.434;38.520;2023-05-12T01:09:25;100870.16;;;4.74;90.24
47761;BME280;33524;55.434;38.520;2023-05-12T01:11:54;100876.12;;;4.76;91.72
47761;BME280;33524;55.434;38.520;2023-05-12T01:14:22;100878.75;;;4.76;91.73
47761;BME280;33524;55.434;38.520;2023-05-12T01:16:52;100877.75;;;4.79;91.07
47761;BME280;33524;55.434;38.520;2023-05-12T01:22:09;100882.19;;;4.77;90.66
47761;BME280;33524;55.434;38.520;2023-05-12T01:24:45;100890.50;;;4.64;94.84
47761;BME280;33524;55.434;38.520;2023-05-12T01:27:17;100891.81;;;4.75;92.11
47761;BME280;33524;55.434;38.520;2023-05-12T01:29:47;100890.78;;;4.79;91.27
47761;BME280;33524;55.434;38.520;2023-05-12T01:32:17;100888.78;;;4.85;90.72
47761;BME280;33524;55.434;38.520;2023-05-12T01:34:45;100881.84;;;4.86;90.82
47761;BME280;33524;55.434;38.520;2023-05-12T01:37:13;100884.44;;;4.86;89.06
47761;BME280;33524;55.434;38.520;2023-05-12T01:39:42;100891.09;;;4.93;85.73
47761;BME280;33524;55.434;38.520;2023-05-12T01:42:11;100892.91;;;4.91;91.69
47761;BME280;33524;55.434;38.520;2023-05-12T01:44:39;100897.41;;;5.08;86.81
47761;BME280;33524;55.434;38.520;2023-05-12T01:47:08;100895.69;;;5.09;87.12
47761;BME280;33524;55.434;38.520;2023-05-12T01:49:38;100892.41;;;5.44;76.91
47761;BME280;33524;55.434;38.520;2023-05-12T01:52:06;100884.94;;;5.56;79.09
47761;BME280;33524;55.434;38.520;2023-05-12T01:54:35;100895.41;;;5.35;83.60
47761;BME280;33524;55.434;38.520;2023-05-12T01:57:04;100885.13;;;5.32;84.87
47761;BME280;33524;55.434;38.520;2023-05-12T01:59:33;100896.34;;;5.34;88.20
47761;BME280;33524;55.434;38.520;2023-05-12T02:02:02;100873.69;;;5.14;92.06
47761;BME280;33524;55.434;38.520;2023-05-12T02:04:31;100898.56;;;5.23;90.55
47761;BME280;33524;55.434;38.520;2023-05-12T02:07:00;100895.34;;;5.37;88.45
47761;BME280;33524;55.434;38.520;2023-05-12T02:09:28;100892.41;;;5.44;85.62
47761;BME280;33524;55.434;38.520;2023-05-12T02:11:57;100896.31;;;5.55;84.53
47761;BME280;33524;55.434;38.520;2023-05-12T02:14:25;100894.75;;;5.51;82.39
47761;BME280;33524;55.434;38.520;2023-05-12T02:16:54;100894.28;;;5.61;83.05
47761;BME280;33524;55.434;38.520;2023-05-12T02:19:23;100897.91;;;5.78;80.37
47761;BME280;33524;55.434;38.520;2023-05-12T02:21:56;100896.50;;;6.29;67.97
47761;BME280;33524;55.434;38.520;2023-05-12T02:24:25;100901.31;;;6.75;65.27
47761;BME280;33524;55.434;38.520;2023-05-12T02:26:53;100888.94;;;6.59;71.66
47761;BME280;33524;55.434;38.520;2023-05-12T02:29:21;100889.31;;;6.88;64.35
47761;BME280;33524;55.434;38.520;2023-05-12T02:31:50;100882.94;;;6.57;81.97
47761;BME280;33524;55.434;38.520;2023-05-12T02:34:19;100884.84;;;6.17;83.10
47761;BME280;33524;55.434;38.520;2023-05-12T02:36:47;100895.94;;;6.41;72.94
47761;BME280;33524;55.434;38.520;2023-05-12T02:39:16;100882.28;;;6.54;75.77
47761;BME280;33524;55.434;38.520;2023-05-12T02:41:44;100881.22;;;6.58;80.76
47761;BME280;33524;55.434;38.520;2023-05-12T02:44:12;100891.75;;;6.74;70.11
47761;BME280;33524;55.434;38.520;2023-05-12T02:46:43;100881.28;;;6.74;75.11
47761;BME280;33524;55.434;38.520;2023-05-12T02:49:12;100889.72;;;6.61;73.92
47761;BME280;33524;55.434;38.520;2023-05-12T02:51:40;100897.19;;;6.52;76.85
47761;BME280;33524;55.434;38.520;2023-05-12T02:54:08;100895.72;;;6.63;72.94
47761;BME280;33524;55.434;38.520;2023-05-12T02:56:36;100894.25;;;6.94;69.39
47761;BME280;33524;55.434;38.520;2023-05-12T02:59:04;100892.50;;;7.12;67.45
47761;BME280;33524;55.434;38.520;2023-05-12T03:01:33;100897.25;;;7.39;62.78
47761;BME280;33524;55.434;38.520;2023-05-12T03:04:01;100890.13;;;7.58;62.56
47761;BME280;33524;55.434;38.520;2023-05-12T03:06:29;100898.97;;;7.73;61.29
47761;BME280;33524;55.434;38.520;2023-05-12T03:08:58;100898.34;;;7.68;68.52
47761;BME280;33524;55.434;38.520;2023-05-12T03:11:26;100894.19;;;7.81;60.95
47761;BME280;33524;55.434;38.520;2023-05-12T03:13:54;100892.91;;;7.88;63.86
47761;BME280;33524;55.434;38.520;2023-05-12T03:16:22;100886.84;;;7.88;65.02
47761;BME280;33524;55.434;38.520;2023-05-12T03:18:51;100886.03;;;8.19;61.05
47761;BME280;33524;55.434;38.520;2023-05-12T03:21:19;100885.16;;;8.35;59.65
47761;BME280;33524;55.434;38.520;2023-05-12T03:23:47;100887.97;;;8.32;59.81
47761;BME280;33524;55.434;38.520;2023-05-12T03:26:15;100863.56;;;8.47;58.68
47761;BME280;33524;55.434;38.520;2023-05-12T03:28:43;100884.31;;;8.82;56.63
47761;BME280;33524;55.434;38.520;2023-05-12T03:31:11;100884.28;;;8.98;58.03
47761;BME280;33524;55.434;38.520;2023-05-12T03:33:40;100879.00;;;9.14;57.32
47761;BME280;33524;55.434;38.520;2023-05-12T03:36:08;100888.56;;;9.29;57.52
47761;BME280;33524;55.434;38.520;2023-05-12T03:38:36;100883.06;;;9.48;54.83
47761;BME280;33524;55.434;38.520;2023-05-12T03:41:05;100887.66;;;9.73;54.74
47761;BME280;33524;55.434;38.520;2023-05-12T03:43:34;100883.63;;;9.96;53.67
47761;BME280;33524;55.434;38.520;2023-05-12T03:46:02;100876.94;;;10.19;54.90
47761;BME280;33524;55.434;38.520;2023-05-12T03:48:31;100872.78;;;10.44;53.09
47761;BME280;33524;55.434;38.520;2023-05-12T03:50:59;100879.06;;;10.68;54.66
47761;BME280;33524;55.434;38.520;2023-05-12T03:53:27;100874.31;;;10.88;55.92
47761;BME280;33524;55.434;38.520;2023-05-12T03:55:56;100880.31;;;11.03;55.16
47761;BME280;33524;55.434;38.520;2023-05-12T03:58:25;100875.53;;;11.35;52.08
47761;BME280;33524;55.434;38.520;2023-05-12T04:00:55;100871.50;;;11.81;51.84
47761;BME280;33524;55.434;38.520;2023-05-12T04:03:24;100867.47;;;12.01;54.30
47761;BME280;33524;55.434;38.520;2023-05-12T04:06:02;100868.06;;;12.17;52.81
47761;BME280;33524;55.434;38.520;2023-05-12T04:08:31;100869.16;;;12.63;51.99
47761;BME280;33524;55.434;38.520;2023-05-12T04:11:00;100855.22;;;12.74;52.33
47761;BME280;33524;55.434;38.520;2023-05-12T04:13:29;100871.69;;;13.24;51.32
47761;BME280;33524;55.434;38.520;2023-05-12T04:16:01;100863.09;;;13.44;51.96
47761;BME280;33524;55.434;38.520;2023-05-12T04:18:29;100852.78;;;13.64;51.64
47761;BME280;33524;55.434;38.520;2023-05-12T04:20:57;100856.22;;;14.21;50.55
47761;BME280;33524;55.434;38.520;2023-05-12T04:23:25;100853.19;;;14.37;51.20
47761;BME280;33524;55.434;38.520;2023-05-12T04:25:53;100859.19;;;14.82;50.20
47761;BME280;33524;55.434;38.520;2023-05-12T04:28:21;100858.22;;;15.25;49.62
47761;BME280;33524;55.434;38.520;2023-05-12T04:30:50;100852.94;;;15.56;48.96
47761;BME280;33524;55.434;38.520;2023-05-12T04:33:20;100852.28;;;15.94;49.57
47761;BME280;33524;55.434;38.520;2023-05-12T04:35:48;100853.53;;;15.90;49.98
47761;BME280;33524;55.434;38.520;2023-05-12T04:38:16;100853.19;;;16.24;50.27
47761;BME280;33524;55.434;38.520;2023-05-12T04:40:44;100849.84;;;16.22;51.11
47761;BME280;33524;55.434;38.520;2023-05-12T04:43:13;100854.94;;;16.84;48.78
47761;BME280;33524;55.434;38.520;2023-05-12T04:45:44;100854.06;;;17.22;48.91
47761;BME280;33524;55.434;38.520;2023-05-12T04:48:12;100854.44;;;17.47;49.18
47761;BME280;33524;55.434;38.520;2023-05-12T04:50:40;100855.88;;;17.69;48.40
47761;BME280;33524;55.434;38.520;2023-05-12T04:53:09;100856.75;;;17.97;48.61
47761;BME280;33524;55.434;38.520;2023-05-12T04:55:38;100830.19;;;18.15;47.83
47761;BME280;33524;55.434;38.520;2023-05-12T04:58:06;100845.66;;;18.29;47.86
47761;BME280;33524;55.434;38.520;2023-05-12T05:00:34;100847.84;;;19.06;47.49
47761;BME280;33524;55.434;38.520;2023-05-12T05:03:02;100842.94;;;19.45;47.25
47761;BME280;33524;55.434;38.520;2023-05-12T05:05:31;100843.78;;;19.20;48.31
47761;BME280;33524;55.434;38.520;2023-05-12T05:08:05;100842.78;;;19.73;47.00
47761;BME280;33524;55.434;38.520;2023-05-12T05:10:33;100840.94;;;20.24;45.70
47761;BME280;33524;55.434;38.520;2023-05-12T05:13:02;100838.19;;;20.59;45.06
47761;BME280;33524;55.434;38.520;2023-05-12T05:15:30;100841.88;;;20.90;44.48
47761;BME280;33524;55.434;38.520;2023-05-12T05:17:58;100842.53;;;21.17;44.77
47761;BME280;33524;55.434;38.520;2023-05-12T05:20:29;100841.97;;;20.48;44.30
47761;BME280;33524;55.434;38.520;2023-05-12T05:22:59;100838.38;;;20.98;45.65
47761;BME280;33524;55.434;38.520;2023-05-12T05:25:27;100848.03;;;21.15;45.52
47761;BME280;33524;55.434;38.520;2023-05-12T05:27:56;100836.78;;;21.36;44.25
47761;BME280;33524;55.434;38.520;2023-05-12T05:30:24;100837.88;;;21.75;43.88
47761;BME280;33524;55.434;38.520;2023-05-12T05:32:52;100835.94;;;21.92;44.41
47761;BME280;33524;55.434;38.520;2023-05-12T05:35:21;100835.59;;;22.58;44.02
47761;BME280;33524;55.434;38.520;2023-05-12T05:37:50;100828.38;;;21.64;42.17
47761;BME280;33524;55.434;38.520;2023-05-12T05:40:21;100819.50;;;22.95;43.05
47761;BME280;33524;55.434;38.520;2023-05-12T05:42:50;100818.06;;;22.47;43.73
47761;BME280;33524;55.434;38.520;2023-05-12T05:45:18;100810.06;;;23.52;42.49
47761;BME280;33524;55.434;38.520;2023-05-12T05:47:47;100808.19;;;24.19;41.41
47761;BME280;33524;55.434;38.520;2023-05-12T05:50:16;100818.06;;;24.55;40.48
47761;BME280;33524;55.434;38.520;2023-05-12T05:52:45;100811.56;;;24.92;40.38
47761;BME280;33524;55.434;38.520;2023-05-12T05:55:13;100811.22;;;25.02;40.00
47761;BME280;33524;55.434;38.520;2023-05-12T05:57:41;100807.81;;;24.87;40.29
47761;BME280;33524;55.434;38.520;2023-05-12T06:00:10;100811.22;;;25.02;40.20
47761;BME280;33524;55.434;38.520;2023-05-12T06:02:41;100816.81;;;25.29;39.93
47761;BME280;33524;55.434;38.520;2023-05-12T06:05:10;100810.66;;;25.42;39.56
47761;BME280;33524;55.434;38.520;2023-05-12T06:07:40;100806.97;;;25.91;38.90
47761;BME280;33524;55.434;38.520;2023-05-12T06:10:08;100811.41;;;26.18;38.53
47761;BME280;33524;55.434;38.520;2023-05-12T06:12:37;100806.56;;;25.52;39.91
47761;BME280;33524;55.434;38.520;2023-05-12T06:15:07;100795.47;;;26.30;38.47
47761;BME280;33524;55.434;38.520;2023-05-12T06:17:35;100798.81;;;27.12;37.15
47761;BME280;33524;55.434;38.520;2023-05-12T06:20:04;100798.38;;;27.15;37.57
47761;BME280;33524;55.434;38.520;2023-05-12T06:22:33;100795.91;;;26.54;38.32
47761;BME280;33524;55.434;38.520;2023-05-12T06:25:04;100798.41;;;26.95;37.70
47761;BME280;33524;55.434;38.520;2023-05-12T06:27:32;100802.09;;;27.41;37.33
47761;BME280;33524;55.434;38.520;2023-05-12T06:30:01;100791.53;;;27.85;36.48
47761;BME280;33524;55.434;38.520;2023-05-12T06:32:31;100799.44;;;28.25;35.64
47761;BME280;33524;55.434;38.520;2023-05-12T06:34:59;100798.81;;;27.91;36.47
47761;BME280;33524;55.434;38.520;2023-05-12T06:37:29;100801.72;;;27.31;36.98
47761;BME280;33524;55.434;38.520;2023-05-12T06:39:57;100795.50;;;27.10;37.70
47761;BME280;33524;55.434;38.520;2023-05-12T06:42:25;100807.06;;;27.44;37.67
47761;BME280;33524;55.434;38.520;2023-05-12T06:44:55;100790.31;;;27.02;29.04
47761;BME280;33524;55.434;38.520;2023-05-12T06:47:23;100797.88;;;27.58;37.27
47761;BME280;33524;55.434;38.520;2023-05-12T06:49:51;100781.84;;;28.91;35.76
47761;BME280;33524;55.434;38.520;2023-05-12T06:52:19;100787.88;;;28.36;35.89
47761;BME280;33524;55.434;38.520;2023-05-12T06:54:50;100796.41;;;24.85;30.72
47761;BME280;33524;55.434;38.520;2023-05-12T06:57:18;100800.91;;;25.82;31.09
47761;BME280;33524;55.434;38.520;2023-05-12T06:59:47;100785.06;;;27.34;38.94
47761;BME280;33524;55.434;38.520;2023-05-12T07:02:15;100778.94;;;26.67;31.07
47761;BME280;33524;55.434;38.520;2023-05-12T07:04:43;100789.37;;;26.02;34.74
47761;BME280;33524;55.434;38.520;2023-05-12T07:07:11;100795.31;;;26.72;37.94
47761;BME280;33524;55.434;38.520;2023-05-12T07:09:40;100789.63;;;24.46;31.04
47761;BME280;33524;55.434;38.520;2023-05-12T07:12:09;100790.13;;;26.57;38.75
47761;BME280;33524;55.434;38.520;2023-05-12T07:14:37;100796.03;;;26.12;32.35
47761;BME280;33524;55.434;38.520;2023-05-12T07:17:05;100780.75;;;27.00;35.82
47761;BME280;33524;55.434;38.520;2023-05-12T07:19:33;100779.59;;;28.88;35.35
47761;BME280;33524;55.434;38.520;2023-05-12T07:22:02;100784.03;;;29.26;34.61
47761;BME280;33524;55.434;38.520;2023-05-12T07:24:30;100777.06;;;28.36;36.61
47761;BME280;33524;55.434;38.520;2023-05-12T07:26:58;100779.16;;;28.91;36.61
47761;BME280;33524;55.434;38.520;2023-05-12T07:29:26;100783.84;;;26.50;27.73
47761;BME280;33524;55.434;38.520;2023-05-12T07:31:55;100777.62;;;29.38;36.23
47761;BME280;33524;55.434;38.520;2023-05-12T07:34:23;100774.75;;;30.43;33.83
47761;BME280;33524;55.434;38.520;2023-05-12T07:36:51;100769.84;;;31.10;29.89
47761;BME280;33524;55.434;38.520;2023-05-12T07:39:19;100776.47;;;30.25;33.51
47761;BME280;33524;55.434;38.520;2023-05-12T07:41:50;100788.75;;;24.60;37.37
47761;BME280;33524;55.434;38.520;2023-05-12T07:44:20;100777.62;;;26.29;40.92
47761;BME280;33524;55.434;38.520;2023-05-12T07:46:48;100777.44;;;27.69;38.32
47761;BME280;33524;55.434;38.520;2023-05-12T07:49:16;100776.13;;;29.24;36.82
47761;BME280;33524;55.434;38.520;2023-05-12T07:51:44;100765.00;;;28.89;23.62
47761;BME280;33524;55.434;38.520;2023-05-12T07:54:12;100757.59;;;30.96;33.83
47761;BME280;33524;55.434;38.520;2023-05-12T07:56:40;100762.41;;;29.01;35.58
47761;BME280;33524;55.434;38.520;2023-05-12T07:59:08;100775.87;;;27.48;25.60
47761;BME280;33524;55.434;38.520;2023-05-12T08:01:37;100767.94;;;28.37;38.66
47761;BME280;33524;55.434;38.520;2023-05-12T08:04:06;100773.72;;;26.92;22.95
47761;BME280;33524;55.434;38.520;2023-05-12T08:06:34;100751.22;;;29.83;35.01
47761;BME280;33524;55.434;38.520;2023-05-12T08:09:02;100763.38;;;30.22;30.84
47761;BME280;33524;55.434;38.520;2023-05-12T08:11:31;100767.84;;;28.75;26.19
47761;BME280;33524;55.434;38.520;2023-05-12T08:13:59;100771.31;;;27.94;34.37
47761;BME280;33524;55.434;38.520;2023-05-12T08:16:27;100773.41;;;27.92;25.24
47761;BME280;33524;55.434;38.520;2023-05-12T08:18:56;100770.13;;;28.22;36.55
47761;BME280;33524;55.434;38.520;2023-05-12T08:21:25;100768.87;;;29.55;27.31
47761;BME280;33524;55.434;38.520;2023-05-12T08:23:55;100755.53;;;30.44;34.26
47761;BME280;33524;55.434;38.520;2023-05-12T08:26:24;100761.94;;;30.08;29.64
47761;BME280;33524;55.434;38.520;2023-05-12T08:28:51;100761.63;;;26.08;26.03
47761;BME280;33524;55.434;38.520;2023-05-12T08:31:20;100762.31;;;26.90;40.09
47761;BME280;33524;55.434;38.520;2023-05-12T08:33:48;100748.31;;;31.73;28.22
47761;BME280;33524;55.434;38.520;2023-05-12T08:36:35;100746.72;;;30.72;33.58
47761;BME280;33524;55.434;38.520;2023-05-12T08:39:04;100753.78;;;27.65;30.13
47761;BME280;33524;55.434;38.520;2023-05-12T08:41:53;100754.00;;;29.46;25.66
47761;BME280;33524;55.434;38.520;2023-05-12T08:44:25;100754.63;;;26.53;22.72
47761;BME280;33524;55.434;38.520;2023-05-12T08:46:56;100749.66;;;26.84;22.85
47761;BME280;33524;55.434;38.520;2023-05-12T08:49:25;100746.44;;;28.42;30.63
47761;BME280;33524;55.434;38.520;2023-05-12T08:51:58;100748.13;;;27.14;30.89
47761;BME280;33524;55.434;38.520;2023-05-12T08:54:28;100744.88;;;25.16;23.06
47761;BME280;33524;55.434;38.520;2023-05-12T08:56:57;100743.22;;;26.45;28.17
47761;BME280;33524;55.434;38.520;2023-05-12T08:59:28;100741.81;;;22.87;38.96
47761;BME280;33524;55.434;38.520;2023-05-12T09:01:58;100740.78;;;25.75;39.51
47761;BME280;33524;55.434;38.520;2023-05-12T09:04:30;100719.16;;;26.56;23.47
47761;BME280;33524;55.434;38.520;2023-05-12T09:07:00;100725.78;;;26.74;39.69
47761;BME280;33524;55.434;38.520;2023-05-12T09:09:28;100731.22;;;25.59;23.96
47761;BME280;33524;55.434;38.520;2023-05-12T09:12:01;100723.53;;;26.71;23.52
47761;BME280;33524;55.434;38.520;2023-05-12T09:14:33;100727.47;;;27.53;23.61
47761;BME280;33524;55.434;38.520;2023-05-12T09:17:03;100734.91;;;23.52;32.00
47761;BME280;33524;55.434;38.520;2023-05-12T09:19:31;100729.22;;;22.12;25.61
47761;BME280;33524;55.434;38.520;2023-05-12T09:22:00;100735.94;;;20.73;32.54
47761;BME280;33524;55.434;38.520;2023-05-12T09:24:36;100724.16;;;23.37;30.88
47761;BME280;33524;55.434;38.520;2023-05-12T09:27:05;100716.69;;;28.42;35.04
47761;BME280;33524;55.434;38.520;2023-05-12T09:29:34;100711.47;;;26.47;34.22
47761;BME280;33524;55.434;38.520;2023-05-12T09:32:15;100715.19;;;29.33;32.43
47761;BME280;33524;55.434;38.520;2023-05-12T09:34:43;100717.47;;;28.93;32.98
47761;BME280;33524;55.434;38.520;2023-05-12T09:37:13;100706.31;;;31.97;29.52
47761;BME280;33524;55.434;38.520;2023-05-12T09:39:43;100720.19;;;25.06;23.44
47761;BME280;33524;55.434;38.520;2023-05-12T09:42:11;100721.53;;;24.95;28.38
47761;BME280;33524;55.434;38.520;2023-05-12T09:44:39;100721.09;;;22.96;28.30
47761;BME280;33524;55.434;38.520;2023-05-12T09:47:08;100725.31;;;21.21;29.00
47761;BME280;33524;55.434;38.520;2023-05-12T09:49:37;100707.63;;;27.28;38.17
47761;BME280;33524;55.434;38.520;2023-05-12T09:52:07;100698.66;;;28.61;34.08
47761;BME280;33524;55.434;38.520;2023-05-12T09:54:38;100704.63;;;26.51;36.13
47761;BME280;33524;55.434;38.520;2023-05-12T09:57:08;100711.25;;;23.99;24.85
47761;BME280;33524;55.434;38.520;2023-05-12T09:59:39;100707.50;;;22.83;24.61
47761;BME280;33524;55.434;38.520;2023-05-12T10:02:12;100710.38;;;21.74;24.54
47761;BME280;33524;55.434;38.520;2023-05-12T10:04:48;100679.16;;;30.17;30.77
47761;BME280;33524;55.434;38.520;2023-05-12T10:07:21;100679.19;;;34.18;25.00
47761;BME280;33524;55.434;38.520;2023-05-12T10:09:54;100686.50;;;28.20;19.64
47761;BME280;33524;55.434;38.520;2023-05-12T10:12:25;100693.03;;;25.07;20.41
47761;BME280;33524;55.434;38.520;2023-05-12T10:14:54;100685.75;;;26.64;22.02
47761;BME280;33524;55.434;38.520;2023-05-12T10:17:24;100691.75;;;27.83;30.87
47761;BME280;33524;55.434;38.520;2023-05-12T10:19:53;100689.06;;;25.31;21.95
47761;BME280;33524;55.434;38.520;2023-05-12T10:22:23;100690.28;;;23.73;26.27
47761;BME280;33524;55.434;38.520;2023-05-12T10:24:53;100692.81;;;23.08;25.47
47761;BME280;33524;55.434;38.520;2023-05-12T10:27:23;100685.00;;;23.43;25.86
47761;BME280;33524;55.434;38.520;2023-05-12T10:29:52;100684.53;;;23.76;24.78
47761;BME280;33524;55.434;38.520;2023-05-12T10:32:21;100683.09;;;23.95;24.79
47761;BME280;33524;55.434;38.520;2023-05-12T10:34:49;100677.59;;;24.81;30.51
47761;BME280;33524;55.434;38.520;2023-05-12T10:37:22;100684.56;;;24.69;23.68
47761;BME280;33524;55.434;38.520;2023-05-12T10:39:51;100672.84;;;23.26;24.77
47761;BME280;33524;55.434;38.520;2023-05-12T10:42:21;100677.44;;;21.34;25.22
47761;BME280;33524;55.434;38.520;2023-05-12T10:44:54;100697.69;;;20.56;25.24
47761;BME280;33524;55.434;38.520;2023-05-12T10:47:37;100682.19;;;20.68;28.81
47761;BME280;33524;55.434;38.520;2023-05-12T10:50:06;100694.00;;;20.98;31.13
47761;BME280;33524;55.434;38.520;2023-05-12T10:52:34;100672.28;;;27.68;30.01
47761;BME280;33524;55.434;38.520;2023-05-12T10:55:03;100684.00;;;23.29;22.20
47761;BME280;33524;55.434;38.520;2023-05-12T10:57:32;100684.50;;;22.35;24.28
47761;BME280;33524;55.434;38.520;2023-05-12T11:00:01;100680.75;;;21.75;23.44
47761;BME280;33524;55.434;38.520;2023-05-12T11:02:49;100679.34;;;24.11;27.34
47761;BME280;33524;55.434;38.520;2023-05-12T11:05:19;100679.66;;;22.84;22.96
47761;BME280;33524;55.434;38.520;2023-05-12T11:07:49;100670.38;;;24.04;32.50
47761;BME280;33524;55.434;38.520;2023-05-12T11:10:18;100677.59;;;25.16;30.79
47761;BME280;33524;55.434;38.520;2023-05-12T11:12:48;100663.78;;;26.01;22.06
47761;BME280;33524;55.434;38.520;2023-05-12T11:15:17;100660.16;;;25.53;22.57
47761;BME280;33524;55.434;38.520;2023-05-12T11:17:45;100654.00;;;28.02;24.92
47761;BME280;33524;55.434;38.520;2023-05-12T11:20:24;100672.44;;;24.51;22.64
47761;BME280;33524;55.434;38.520;2023-05-12T11:22:55;100675.16;;;23.14;21.97
47761;BME280;33524;55.434;38.520;2023-05-12T11:25:26;100663.97;;;22.66;22.65
47761;BME280;33524;55.434;38.520;2023-05-12T11:27:55;100676.16;;;24.79;21.39
47761;BME280;33524;55.434;38.520;2023-05-12T11:30:23;100674.94;;;22.56;23.48
47761;BME280;33524;55.434;38.520;2023-05-12T11:33:01;100678.47;;;21.25;23.95
47761;BME280;33524;55.434;38.520;2023-05-12T11:35:30;100672.75;;;21.36;24.84
47761;BME280;33524;55.434;38.520;2023-05-12T11:37:59;100678.47;;;20.85;24.83
47761;BME280;33524;55.434;38.520;2023-05-12T11:40:29;100682.03;;;20.69;25.32
47761;BME280;33524;55.434;38.520;2023-05-12T11:42:57;100680.25;;;21.01;25.46
47761;BME280;33524;55.434;38.520;2023-05-12T11:45:36;100681.59;;;20.97;25.92
47761;BME280;33524;55.434;38.520;2023-05-12T11:48:06;100676.94;;;20.91;25.48
47761;BME280;33524;55.434;38.520;2023-05-12T11:50:37;100677.94;;;20.98;25.36
47761;BME280;33524;55.434;38.520;2023-05-12T11:53:15;100669.94;;;21.69;25.52
47761;BME280;33524;55.434;38.520;2023-05-12T11:55:54;100664.13;;;22.49;23.79
47761;BME280;33524;55.434;38.520;2023-05-12T11:58:25;100671.69;;;22.23;24.37
47761;BME280;33524;55.434;38.520;2023-05-12T12:00:54;100666.03;;;22.17;23.08
47761;BME280;33524;55.434;38.520;2023-05-12T12:03:24;100656.44;;;22.46;25.54
47761;BME280;33524;55.434;38.520;2023-05-12T12:06:00;100648.38;;;22.46;22.23
47761;BME280;33524;55.434;38.520;2023-05-12T12:08:29;100647.94;;;23.32;22.98
47761;BME280;33524;55.434;38.520;2023-05-12T12:10:58;100649.94;;;23.66;21.77
47761;BME280;33524;55.434;38.520;2023-05-12T12:13:30;100655.34;;;23.00;22.66
47761;BME280;33524;55.434;38.520;2023-05-12T12:15:58;100649.06;;;22.78;23.49
47761;BME280;33524;55.434;38.520;2023-05-12T12:18:26;100651.53;;;22.50;23.87
47761;BME280;33524;55.434;38.520;2023-05-12T12:20:55;100656.53;;;21.46;24.42
47761;BME280;33524;55.434;38.520;2023-05-12T12:23:23;100658.69;;;21.03;24.59
47761;BME280;33524;55.434;38.520;2023-05-12T12:25:51;100657.47;;;20.66;24.93
47761;BME280;33524;55.434;38.520;2023-05-12T12:28:19;100660.66;;;20.61;25.51
47761;BME280;33524;55.434;38.520;2023-05-12T12:30:47;100659.88;;;21.00;25.49
47761;BME280;33524;55.434;38.520;2023-05-12T12:33:15;100652.25;;;21.83;24.25
47761;BME280;33524;55.434;38.520;2023-05-12T12:35:48;100642.50;;;21.35;25.05
47761;BME280;33524;55.434;38.520;2023-05-12T12:38:15;100649.12;;;21.08;25.08
47761;BME280;33524;55.434;38.520;2023-05-12T12:40:44;100650.22;;;21.30;25.09
47761;BME280;33524;55.434;38.520;2023-05-12T12:43:12;100648.75;;;21.82;27.92
47761;BME280;33524;55.434;38.520;2023-05-12T12:45:41;100649.56;;;21.60;25.59
47761;BME280;33524;55.434;38.520;2023-05-12T12:48:09;100654.59;;;20.84;25.65
47761;BME280;33524;55.434;38.520;2023-05-12T12:50:37;100659.16;;;21.06;25.64
47761;BME280;33524;55.434;38.520;2023-05-12T12:53:06;100657.50;;;21.05;28.32
47761;BME280;33524;55.434;38.520;2023-05-12T12:55:34;100660.00;;;20.67;25.62
47761;BME280;33524;55.434;38.520;2023-05-12T12:58:02;100646.94;;;20.56;25.73